Time;durP1;ratioP1;P1;durP2;ratioP2;P2;SDS_P1;SDS_P2;PMS_P1;PMS_P2;Temp;Humidity;BMP_temperature;BMP_pressure;BME280_temperature;BME280_humidity;BME280_pressure;Samples;Min_cycle;Max_cycle;Signal;HPM_P1;HPM_P2
2021/10/05 05:47:21;;;;;;;18.43;12.47;;;;;;;;;;5086118;27;20361;-73
2021/10/05 05:50:26;;;;;;;16.70;12.60;;;;;;;;;;5067510;28;20716;-72
2021/10/05 05:53:30;;;;;;;25.27;19.00;;;;;;;;;;5050367;28;20188;-72
2021/10/05 05:56:34;;;;;;;22.73;17.93;;;;;;;;;;5030889;28;20173;-72
2021/10/05 05:59:38;;;;;;;18.83;13.90;;;;;;;;;;5030878;28;20513;-71
2021/10/05 06:02:42;;;;;;;20.23;14.10;;;;;;;;;;5044228;28;20223;-71
2021/10/05 06:05:46;;;;;;;20.37;13.57;;;;;;;;;;5050445;28;20220;-71
2021/10/05 06:08:51;;;;;;;21.17;12.67;;;;;;;;;;5050309;28;20180;-71
2021/10/05 06:12:01;;;;;;;16.60;11.77;;;;;;;;;;5050370;28;20219;-71
2021/10/05 06:15:11;;;;;;;15.63;12.03;;;;;;;;;;5050229;28;20176;-72
2021/10/05 06:18:16;;;;;;;20.50;12.70;;;;;;;;;;5050484;28;20181;-71
2021/10/05 06:21:20;;;;;;;16.97;12.80;;;;;;;;;;5050083;28;20208;-72
2021/10/05 06:24:24;;;;;;;16.90;10.87;;;;;;;;;;5050090;28;20180;-72
2021/10/05 06:27:28;;;;;;;14.80;11.03;;;;;;;;;;5050287;28;20509;-72
2021/10/05 06:30:32;;;;;;;17.73;11.70;;;;;;;;;;5050149;28;20184;-72
2021/10/05 06:33:36;;;;;;;16.23;10.73;;;;;;;;;;5050158;28;20184;-72
2021/10/05 06:36:41;;;;;;;18.50;10.90;;;;;;;;;;5049853;28;20516;-72
2021/10/05 06:39:45;;;;;;;15.43;10.97;;;;;;;;;;5050013;28;20188;-72
2021/10/05 06:42:49;;;;;;;13.93;10.57;;;;;;;;;;5072660;28;20177;-72
2021/10/05 06:45:53;;;;;;;15.30;11.63;;;;;;;;;;5057699;28;20219;-72
2021/10/05 06:48:57;;;;;;;14.77;11.93;;;;;;;;;;5068428;28;20192;-72
2021/10/05 06:52:02;;;;;;;18.53;13.37;;;;;;;;;;5059238;28;20215;-72
2021/10/05 06:55:06;;;;;;;16.47;11.83;;;;;;;;;;5069530;28;20180;-73
2021/10/05 06:58:10;;;;;;;19.90;12.70;;;;;;;;;;5058391;28;20180;-73
2021/10/05 07:01:15;;;;;;;18.83;12.80;;;;;;;;;;5047455;28;20219;-73
2021/10/05 07:04:19;;;;;;;18.90;13.27;;;;;;;;;;5056273;28;20184;-72
2021/10/05 07:30:26;;;;;;;17.57;13.17;;;;;;;;;;5055743;28;20619;-73
2021/10/05 07:33:30;;;;;;;17.07;13.50;;;;;;;;;;5066426;28;20208;-73
2021/10/05 07:36:34;;;;;;;18.47;12.93;;;;;;;;;;5055409;28;20176;-73
2021/10/05 07:39:38;;;;;;;17.13;12.77;;;;;;;;;;5055598;28;20184;-74
2021/10/05 07:42:43;;;;;;;16.90;12.33;;;;;;;;;;5042923;28;20679;-73
2021/10/05 07:45:48;;;;;;;19.30;12.50;;;;;;;;;;5055034;28;20223;-74
2021/10/05 07:48:52;;;;;;;15.13;12.10;;;;;;;;;;5055202;28;20180;-73
2021/10/05 07:51:56;;;;;;;16.63;12.47;;;;;;;;;;5055039;28;20220;-74
2021/10/05 07:55:00;;;;;;;20.60;13.40;;;;;;;;;;5043385;28;20180;-74
2021/10/05 07:58:04;;;;;;;18.33;12.57;;;;;;;;;;5055286;28;20176;-73
2021/10/05 08:01:08;;;;;;;18.43;14.03;;;;;;;;;;5055132;28;20223;-73
2021/10/05 08:04:13;;;;;;;26.17;14.57;;;;;;;;;;5055185;28;20176;-73
2021/10/05 08:07:17;;;;;;;18.40;13.13;;;;;;;;;;5054553;28;20203;-73
2021/10/05 08:10:21;;;;;;;22.77;14.00;;;;;;;;;;5053975;28;20176;-73
2021/10/05 08:13:25;;;;;;;20.93;14.07;;;;;;;;;;5054715;28;20180;-73
2021/10/05 08:16:32;;;;;;;20.57;14.07;;;;;;;;;;5054593;28;20196;-73
2021/10/05 08:19:36;;;;;;;24.50;16.17;;;;;;;;;;5054865;28;20176;-73
2021/10/05 08:22:40;;;;;;;21.20;15.17;;;;;;;;;;5054440;28;20698;-73
2021/10/05 08:25:45;;;;;;;18.57;15.33;;;;;;;;;;5042172;28;20180;-73
2021/10/05 08:28:49;;;;;;;19.97;13.80;;;;;;;;;;5054630;28;20204;-73
2021/10/05 08:31:53;;;;;;;21.77;15.03;;;;;;;;;;5054318;28;20219;-74
2021/10/05 08:34:57;;;;;;;20.60;15.60;;;;;;;;;;5054538;28;20184;-74
2021/10/05 08:38:04;;;;;;;27.53;18.53;;;;;;;;;;5054243;28;20180;-73
2021/10/05 08:41:09;;;;;;;21.47;15.17;;;;;;;;;;5054368;28;20222;-74
2021/10/05 08:44:14;;;;;;;22.00;15.00;;;;;;;;;;5054061;28;20207;-74
2021/10/05 08:47:19;;;;;;;21.17;14.07;;;;;;;;;;5041616;28;20233;-73
2021/10/05 08:50:25;;;;;;;18.27;13.83;;;;;;;;;;5041967;28;20188;-73
2021/10/05 08:53:30;;;;;;;25.13;18.70;;;;;;;;;;5053948;28;20188;-73
2021/10/05 08:56:35;;;;;;;25.67;17.80;;;;;;;;;;5053904;28;20183;-73
2021/10/05 08:59:39;;;;;;;28.20;18.23;;;;;;;;;;5054381;28;20180;-73
2021/10/05 09:02:45;;;;;;;25.23;18.47;;;;;;;;;;5064381;28;20733;-73
2021/10/05 09:05:49;;;;;;;22.07;15.27;;;;;;;;;;5054015;28;20531;-74
2021/10/05 09:08:53;;;;;;;20.57;15.43;;;;;;;;;;5053996;28;20193;-74
2021/10/05 09:11:57;;;;;;;24.70;15.47;;;;;;;;;;5053667;28;20222;-74
2021/10/05 09:15:06;;;;;;;22.93;14.33;;;;;;;;;;5053571;28;20210;-73
2021/10/05 09:18:11;;;;;;;20.60;15.13;;;;;;;;;;5053882;28;20184;-73
2021/10/05 09:21:15;;;;;;;21.60;16.23;;;;;;;;;;5053390;28;20223;-74
2021/10/05 09:24:24;;;;;;;21.50;16.40;;;;;;;;;;5053440;28;20693;-74
2021/10/05 09:27:28;;;;;;;23.43;17.30;;;;;;;;;;5041211;28;20219;-73
2021/10/05 09:30:32;;;;;;;22.57;17.27;;;;;;;;;;5053602;28;20188;-73
2021/10/05 09:33:37;;;;;;;29.10;20.97;;;;;;;;;;5053314;28;20189;-74
2021/10/05 09:36:41;;;;;;;31.90;19.83;;;;;;;;;;5053836;28;20179;-74
2021/10/05 09:40:18;;;;;;;41.97;21.57;;;;;;;;;;5041568;28;20206;-74
2021/10/05 09:43:23;;;;;;;26.77;21.37;;;;;;;;;;4954239;28;20226;-74
2021/10/05 09:46:26;;;;;;;19.37;17.03;;;;;;;;;;4954398;29;20216;-75
2021/10/05 09:49:40;;;;;;;23.90;18.60;;;;;;;;;;4955062;29;20196;-75
2021/10/05 09:52:46;;;;;;;16.70;14.03;;;;;;;;;;4955559;29;20218;-75
2021/10/05 09:55:51;;;;;;;17.23;14.90;;;;;;;;;;4955501;29;20186;-75
2021/10/05 09:58:56;;;;;;;16.10;14.07;;;;;;;;;;4955456;29;20191;-75
2021/10/05 10:02:00;;;;;;;16.10;12.67;;;;;;;;;;4965383;28;20244;-75
2021/10/05 10:05:11;;;;;;;19.63;16.37;;;;;;;;;;4955134;29;20191;-75
2021/10/05 10:08:21;;;;;;;15.83;12.50;;;;;;;;;;4954937;29;20224;-75
2021/10/05 10:11:26;;;;;;;14.90;13.07;;;;;;;;;;4943467;29;20226;-75
2021/10/05 10:14:30;;;;;;;19.60;17.10;;;;;;;;;;4955277;29;20192;-73
2021/10/05 10:17:35;;;;;;;27.57;21.43;;;;;;;;;;4955015;29;20539;-73
2021/10/05 10:20:42;;;;;;;18.43;15.27;;;;;;;;;;4965492;28;20250;-73
2021/10/05 10:23:46;;;;;;;30.00;21.47;;;;;;;;;;4954172;29;20195;-73
2021/10/05 10:27:03;;;;;;;16.97;12.33;;;;;;;;;;4954322;29;20222;-73
2021/10/05 10:30:09;;;;;;;12.83;11.10;;;;;;;;;;4955068;29;20193;-73
2021/10/05 10:33:13;;;;;;;14.40;12.30;;;;;;;;;;4956483;28;20662;-73
2021/10/05 10:36:32;;;;;;;11.13;8.57;;;;;;;;;;4957904;29;20688;-73
2021/10/05 10:39:39;;;;;;;10.77;8.03;;;;;;;;;;4958394;29;20199;-73
2021/10/05 10:42:43;;;;;;;9.47;7.30;;;;;;;;;;4968606;28;20215;-73
2021/10/05 10:45:59;;;;;;;20.43;15.63;;;;;;;;;;4958421;29;20184;-73
2021/10/05 10:49:12;;;;;;;9.23;6.40;;;;;;;;;;4958516;29;20199;-73
2021/10/05 10:52:26;;;;;;;11.27;9.17;;;;;;;;;;4968454;28;20223;-73
2021/10/05 10:55:35;;;;;;;8.30;6.97;;;;;;;;;;4958437;29;20183;-73
2021/10/05 10:58:45;;;;;;;31.10;22.27;;;;;;;;;;4958371;29;20180;-73
2021/10/05 11:01:52;;;;;;;11.47;9.37;;;;;;;;;;4957870;29;20211;-73
2021/10/05 11:04:56;;;;;;;22.97;17.03;;;;;;;;;;4958502;29;20183;-73
2021/10/05 11:08:09;;;;;;;10.67;7.73;;;;;;;;;;4957670;29;20223;-73
2021/10/05 11:11:16;;;;;;;9.37;7.50;;;;;;;;;;4958054;29;20234;-74
2021/10/05 11:14:23;;;;;;;8.30;6.97;;;;;;;;;;4957779;29;20203;-72
2021/10/05 11:17:33;;;;;;;8.27;7.37;;;;;;;;;;4968147;28;20172;-73
2021/10/05 11:20:43;;;;;;;8.93;6.83;;;;;;;;;;4967892;28;20195;-72
2021/10/05 11:23:48;;;;;;;7.43;6.73;;;;;;;;;;4967896;28;20203;-73
2021/10/05 11:26:52;;;;;;;7.63;6.93;;;;;;;;;;4957452;29;20223;-73
2021/10/05 11:30:06;;;;;;;7.50;6.10;;;;;;;;;;4957802;29;20184;-73
2021/10/05 11:33:21;;;;;;;7.00;6.13;;;;;;;;;;4967471;28;20559;-73
2021/10/05 11:36:25;;;;;;;6.50;5.83;;;;;;;;;;4935053;29;20536;-73
2021/10/05 11:39:30;;;;;;;5.67;5.17;;;;;;;;;;4956842;29;20199;-73
2021/10/05 11:42:34;;;;;;;6.47;5.40;;;;;;;;;;4958263;29;20227;-73
2021/10/05 11:45:38;;;;;;;4.90;4.40;;;;;;;;;;4957415;29;20180;-73
2021/10/05 11:48:46;;;;;;;5.03;4.30;;;;;;;;;;4957535;29;20551;-73
2021/10/05 11:51:52;;;;;;;5.53;4.27;;;;;;;;;;4957283;29;20563;-73
2021/10/05 11:54:57;;;;;;;5.83;4.63;;;;;;;;;;4957392;29;20635;-73
2021/10/05 11:58:01;;;;;;;5.53;4.53;;;;;;;;;;4957316;29;20512;-73
2021/10/05 12:01:13;;;;;;;4.90;4.43;;;;;;;;;;4957229;29;20601;-72
2021/10/05 12:04:17;;;;;;;5.40;4.90;;;;;;;;;;4957454;29;20180;-73
2021/10/05 12:07:24;;;;;;;8.63;5.60;;;;;;;;;;4956308;29;20207;-73
2021/10/05 12:10:28;;;;;;;6.17;4.83;;;;;;;;;;4956203;29;20183;-73
2021/10/05 12:13:32;;;;;;;5.87;4.93;;;;;;;;;;4957010;29;20183;-73
2021/10/05 12:16:36;;;;;;;5.67;5.10;;;;;;;;;;4956836;29;20187;-74
2021/10/05 12:19:50;;;;;;;5.03;4.63;;;;;;;;;;4956851;29;20191;-73
2021/10/05 12:22:55;;;;;;;6.73;5.57;;;;;;;;;;4966969;28;20191;-73
2021/10/05 12:26:10;;;;;;;5.60;4.63;;;;;;;;;;4944713;29;20639;-73
2021/10/05 12:29:14;;;;;;;5.80;5.20;;;;;;;;;;4956413;29;20207;-73
2021/10/05 12:32:18;;;;;;;5.53;4.97;;;;;;;;;;4955588;29;20219;-73
2021/10/05 12:35:35;;;;;;;7.33;5.97;;;;;;;;;;4966904;28;20179;-73
2021/10/05 12:38:40;;;;;;;7.37;6.13;;;;;;;;;;4956266;29;20188;-73
2021/10/05 12:41:58;;;;;;;9.27;5.53;;;;;;;;;;4955956;29;20226;-73
2021/10/05 12:45:09;;;;;;;5.97;5.20;;;;;;;;;;4956171;29;20533;-73
2021/10/05 12:48:15;;;;;;;5.90;5.40;;;;;;;;;;4955938;29;20215;-73
2021/10/05 12:51:22;;;;;;;6.13;5.20;;;;;;;;;;4966526;28;20631;-73
2021/10/05 12:54:27;;;;;;;7.33;4.63;;;;;;;;;;4956144;28;20183;-73
2021/10/05 12:57:30;;;;;;;6.10;4.80;;;;;;;;;;4956213;29;20180;-73
2021/10/05 13:00:35;;;;;;;5.77;4.80;;;;;;;;;;4944291;29;20547;-73
2021/10/05 13:03:39;;;;;;;6.17;5.00;;;;;;;;;;4956097;29;20512;-73
2021/10/05 13:06:43;;;;;;;5.60;5.10;;;;;;;;;;4956024;29;20179;-73
2021/10/05 13:09:47;;;;;;;7.43;5.60;;;;;;;;;;4956023;29;20175;-73
2021/10/05 13:12:51;;;;;;;7.63;5.93;;;;;;;;;;4955997;29;20634;-73
2021/10/05 13:15:56;;;;;;;6.47;5.73;;;;;;;;;;4955614;29;20207;-73
2021/10/05 13:19:00;;;;;;;6.73;5.43;;;;;;;;;;4943782;29;20191;-73
2021/10/05 13:22:04;;;;;;;7.20;5.90;;;;;;;;;;4955567;29;20556;-73
2021/10/05 13:25:09;;;;;;;6.77;5.90;;;;;;;;;;4943725;29;20202;-73
2021/10/05 13:28:14;;;;;;;6.40;5.77;;;;;;;;;;4955354;29;20694;-73
2021/10/05 13:31:18;;;;;;;7.23;6.50;;;;;;;;;;4955377;29;20219;-73
2021/10/05 13:34:22;;;;;;;6.93;6.23;;;;;;;;;;4965987;28;20184;-73
2021/10/05 13:37:27;;;;;;;9.57;7.27;;;;;;;;;;4965633;28;20188;-74
2021/10/05 13:40:32;;;;;;;7.93;6.30;;;;;;;;;;4955421;29;20207;-73
2021/10/05 13:43:36;;;;;;;8.30;6.07;;;;;;;;;;4955602;29;20188;-73
2021/10/05 13:46:40;;;;;;;6.97;5.90;;;;;;;;;;4955163;29;20179;-73
2021/10/05 13:49:44;;;;;;;8.83;6.77;;;;;;;;;;4943720;29;20184;-73
2021/10/05 13:52:48;;;;;;;10.10;6.70;;;;;;;;;;4955191;29;20188;-73
2021/10/05 13:55:52;;;;;;;6.90;5.50;;;;;;;;;;4965729;28;20187;-73
2021/10/05 13:58:58;;;;;;;7.13;6.20;;;;;;;;;;4954631;29;20179;-73
2021/10/05 14:02:03;;;;;;;7.30;5.90;;;;;;;;;;4955132;29;20211;-73
2021/10/05 14:05:07;;;;;;;9.90;5.63;;;;;;;;;;4932757;29;20635;-73
2021/10/05 14:08:11;;;;;;;7.43;4.73;;;;;;;;;;4956453;28;20552;-73
2021/10/05 14:11:15;;;;;;;8.90;4.80;;;;;;;;;;4958941;29;20222;-73
2021/10/05 14:14:20;;;;;;;5.47;4.43;;;;;;;;;;4947112;29;20651;-73
2021/10/05 14:17:24;;;;;;;6.00;4.47;;;;;;;;;;4959119;29;20179;-73
2021/10/05 14:20:28;;;;;;;5.83;4.63;;;;;;;;;;4969318;28;20183;-73
2021/10/05 14:23:33;;;;;;;7.17;4.77;;;;;;;;;;4958842;29;20511;-73
2021/10/05 14:26:36;;;;;;;5.70;4.07;;;;;;;;;;4947461;29;20187;-73
2021/10/05 14:29:40;;;;;;;7.83;4.93;;;;;;;;;;4946983;29;20211;-73
2021/10/05 14:32:45;;;;;;;15.67;11.33;;;;;;;;;;4946881;29;20207;-73
2021/10/05 14:35:49;;;;;;;6.87;4.90;;;;;;;;;;4958805;29;20194;-73
2021/10/05 14:38:54;;;;;;;5.97;4.67;;;;;;;;;;4947199;29;20179;-73
2021/10/05 14:41:58;;;;;;;6.33;4.97;;;;;;;;;;4958391;29;20227;-73
2021/10/05 14:45:05;;;;;;;7.37;5.07;;;;;;;;;;4958683;29;20627;-73
2021/10/05 14:48:09;;;;;;;6.80;4.50;;;;;;;;;;4957993;29;20207;-73
2021/10/05 14:51:14;;;;;;;6.97;4.80;;;;;;;;;;4957397;29;20227;-73
2021/10/05 14:54:19;;;;;;;7.30;3.77;;;;;;;;;;4958181;29;20204;-73
2021/10/05 14:57:23;;;;;;;4.73;4.10;;;;;;;;;;4946626;29;20183;-73
2021/10/05 15:00:27;;;;;;;7.67;4.77;;;;;;;;;;4946515;29;20187;-73
2021/10/05 15:03:31;;;;;;;7.77;4.30;;;;;;;;;;4958010;29;20528;-73
2021/10/05 15:06:36;;;;;;;6.50;4.80;;;;;;;;;;4958256;29;20188;-74
2021/10/05 15:09:43;;;;;;;8.57;5.47;;;;;;;;;;4957925;29;20215;-74
2021/10/05 15:12:47;;;;;;;8.37;5.63;;;;;;;;;;4968696;28;20187;-74
2021/10/05 15:15:51;;;;;;;10.70;6.37;;;;;;;;;;4957955;29;20222;-74
2021/10/05 15:18:56;;;;;;;14.57;6.50;;;;;;;;;;4957674;28;20176;-74
2021/10/05 15:22:00;;;;;;;7.47;6.10;;;;;;;;;;4957598;29;20227;-74
2021/10/05 15:25:05;;;;;;;11.17;6.40;;;;;;;;;;4946173;29;20184;-73
2021/10/05 15:28:09;;;;;;;11.13;6.43;;;;;;;;;;4957022;29;20215;-74
2021/10/05 15:31:14;;;;;;;8.10;6.00;;;;;;;;;;4956725;29;20559;-74
2021/10/05 15:34:18;;;;;;;7.97;6.20;;;;;;;;;;4957479;29;20543;-73
2021/10/05 15:37:22;;;;;;;8.60;6.17;;;;;;;;;;4957453;29;20183;-74
2021/10/05 15:40:27;;;;;;;8.63;6.57;;;;;;;;;;4956422;29;20199;-73
2021/10/05 15:43:31;;;;;;;10.67;5.83;;;;;;;;;;4953653;29;20188;-73
2021/10/05 15:46:36;;;;;;;9.93;5.93;;;;;;;;;;4952674;29;20505;-74
2021/10/05 15:49:40;;;;;;;7.77;6.27;;;;;;;;;;4963720;28;20216;-74
2021/10/05 15:52:46;;;;;;;7.40;5.53;;;;;;;;;;4953412;29;20207;-73
2021/10/05 15:55:51;;;;;;;8.63;6.03;;;;;;;;;;4941546;29;20184;-73
2021/10/05 15:58:59;;;;;;;7.37;5.17;;;;;;;;;;4941571;29;20187;-72
2021/10/05 16:02:03;;;;;;;13.77;8.67;;;;;;;;;;4953195;29;20710;-72
2021/10/05 16:05:08;;;;;;;7.90;6.13;;;;;;;;;;4952065;29;20187;-72
2021/10/05 16:08:13;;;;;;;7.50;5.60;;;;;;;;;;4953286;29;20635;-73
2021/10/05 16:11:17;;;;;;;6.20;5.00;;;;;;;;;;4953033;29;20226;-73
2021/10/05 16:14:24;;;;;;;5.57;4.77;;;;;;;;;;4953038;29;20191;-74
2021/10/05 16:17:28;;;;;;;9.57;5.53;;;;;;;;;;4952789;29;20191;-74
2021/10/05 16:20:32;;;;;;;8.93;5.23;;;;;;;;;;4953007;29;20184;-74
2021/10/05 16:23:37;;;;;;;6.43;4.83;;;;;;;;;;4952053;29;20183;-74
2021/10/05 16:26:41;;;;;;;8.63;5.10;;;;;;;;;;4952752;29;20203;-74
2021/10/05 16:29:45;;;;;;;10.77;4.93;;;;;;;;;;4950615;28;20231;-73
2021/10/05 16:32:49;;;;;;;8.40;5.30;;;;;;;;;;4952729;29;20184;-73
2021/10/05 16:35:53;;;;;;;8.47;5.43;;;;;;;;;;4962902;28;20207;-74
2021/10/05 16:38:58;;;;;;;7.67;5.73;;;;;;;;;;4952631;29;20191;-73
2021/10/05 16:42:02;;;;;;;8.33;5.23;;;;;;;;;;4951990;29;20231;-73
2021/10/05 16:45:09;;;;;;;10.10;4.93;;;;;;;;;;4962789;28;20179;-74
2021/10/05 16:48:13;;;;;;;7.30;5.53;;;;;;;;;;4940269;29;20203;-73
2021/10/05 16:51:17;;;;;;;7.93;5.37;;;;;;;;;;4951562;29;20219;-73
2021/10/05 16:54:23;;;;;;;10.17;5.77;;;;;;;;;;4951987;29;20184;-73
2021/10/05 16:57:27;;;;;;;7.07;4.83;;;;;;;;;;4952197;29;20539;-73
2021/10/05 17:00:31;;;;;;;7.93;5.07;;;;;;;;;;4952263;29;20524;-73
2021/10/05 17:03:35;;;;;;;9.60;5.60;;;;;;;;;;4952270;29;20643;-73
2021/10/05 17:06:44;;;;;;;10.40;5.87;;;;;;;;;;4950902;29;20191;-73
2021/10/05 17:09:47;;;;;;;7.17;5.43;;;;;;;;;;4940007;29;20686;-73
2021/10/05 17:12:52;;;;;;;9.23;5.37;;;;;;;;;;4952109;29;20183;-72
2021/10/05 17:15:57;;;;;;;6.17;5.23;;;;;;;;;;4952122;29;20187;-72
2021/10/05 17:19:01;;;;;;;7.47;5.70;;;;;;;;;;4952005;29;20184;-73
2021/10/05 17:22:06;;;;;;;7.70;5.27;;;;;;;;;;4918214;29;20218;-73
2021/10/05 17:25:12;;;;;;;10.10;5.80;;;;;;;;;;4951879;29;20207;-73
2021/10/05 17:28:19;;;;;;;8.40;5.47;;;;;;;;;;4940036;29;20191;-72
2021/10/05 17:31:23;;;;;;;9.70;5.83;;;;;;;;;;4951825;29;20567;-72
2021/10/05 17:34:27;;;;;;;8.40;6.03;;;;;;;;;;4950936;29;20188;-73
2021/10/05 17:37:32;;;;;;;8.40;5.67;;;;;;;;;;4951782;29;20184;-73
2021/10/05 17:40:36;;;;;;;6.97;5.60;;;;;;;;;;4951234;29;20211;-73
2021/10/05 17:43:40;;;;;;;9.87;5.63;;;;;;;;;;4950864;29;20187;-72
2021/10/05 17:46:45;;;;;;;7.40;5.53;;;;;;;;;;4951562;29;20191;-72
2021/10/05 17:49:50;;;;;;;8.33;5.53;;;;;;;;;;4928649;29;20215;-72
2021/10/05 17:52:55;;;;;;;6.70;5.37;;;;;;;;;;4951295;29;20184;-72
2021/10/05 17:55:59;;;;;;;6.77;5.20;;;;;;;;;;4951588;29;20183;-72
2021/10/05 17:59:03;;;;;;;7.33;5.17;;;;;;;;;;4951558;29;20179;-72
2021/10/05 18:02:07;;;;;;;7.00;5.17;;;;;;;;;;4939741;29;20226;-72
2021/10/05 18:05:11;;;;;;;8.23;5.47;;;;;;;;;;4951148;29;20183;-72
2021/10/05 18:08:15;;;;;;;6.43;5.27;;;;;;;;;;4951469;29;20172;-72
2021/10/05 18:11:20;;;;;;;5.50;4.67;;;;;;;;;;4961515;28;20219;-72
2021/10/05 18:14:24;;;;;;;5.30;4.80;;;;;;;;;;4950734;29;20191;-72
2021/10/05 18:17:28;;;;;;;6.67;4.80;;;;;;;;;;4939167;29;20180;-72
2021/10/05 18:20:33;;;;;;;6.57;5.07;;;;;;;;;;4950473;29;20646;-72
2021/10/05 18:23:39;;;;;;;8.90;4.70;;;;;;;;;;4950580;29;20180;-72
2021/10/05 18:26:46;;;;;;;5.83;4.30;;;;;;;;;;4939496;29;20188;-72
2021/10/05 18:29:52;;;;;;;5.93;4.07;;;;;;;;;;4917151;29;20215;-72
2021/10/05 18:32:56;;;;;;;7.67;4.60;;;;;;;;;;4950377;29;20184;-72
2021/10/05 18:36:00;;;;;;;5.87;4.23;;;;;;;;;;4950404;29;20192;-72
2021/10/05 18:39:06;;;;;;;6.07;4.60;;;;;;;;;;4951227;29;20627;-71
2021/10/05 18:42:10;;;;;;;4.40;4.00;;;;;;;;;;4938755;29;20234;-72
2021/10/05 18:45:15;;;;;;;10.27;4.20;;;;;;;;;;4951249;29;20187;-71
2021/10/05 18:48:19;;;;;;;4.70;4.07;;;;;;;;;;4961269;28;20183;-72
2021/10/05 18:51:24;;;;;;;5.73;4.00;;;;;;;;;;4939168;29;20620;-72
2021/10/05 18:54:28;;;;;;;6.00;3.73;;;;;;;;;;4953279;28;20188;-72
2021/10/05 18:57:33;;;;;;;3.90;3.43;;;;;;;;;;4954417;29;20203;-72
2021/10/05 19:00:39;;;;;;;3.90;2.90;;;;;;;;;;4954302;29;20199;-72
2021/10/05 19:03:44;;;;;;;3.20;2.90;;;;;;;;;;4954360;29;20191;-72
2021/10/05 19:06:49;;;;;;;3.87;2.70;;;;;;;;;;4954123;29;20188;-72
2021/10/05 19:09:54;;;;;;;2.93;2.63;;;;;;;;;;4954041;29;20551;-72
2021/10/05 19:12:59;;;;;;;3.60;3.30;;;;;;;;;;4942488;29;20179;-72
2021/10/05 19:16:04;;;;;;;4.07;3.40;;;;;;;;;;4954220;29;20207;-72
2021/10/05 19:19:08;;;;;;;3.93;3.00;;;;;;;;;;4954186;29;20203;-72
2021/10/05 19:22:13;;;;;;;4.37;3.13;;;;;;;;;;4953951;29;20215;-72
2021/10/05 19:25:18;;;;;;;9.93;2.83;;;;;;;;;;4953171;29;20183;-72
2021/10/05 19:28:22;;;;;;;4.00;3.47;;;;;;;;;;4953968;29;20646;-72
2021/10/05 19:31:27;;;;;;;4.33;2.57;;;;;;;;;;4953891;29;20207;-71
2021/10/05 19:34:31;;;;;;;3.33;2.97;;;;;;;;;;4953819;29;20520;-71
2021/10/05 19:37:35;;;;;;;4.60;2.40;;;;;;;;;;4953659;29;20188;-71
2021/10/05 19:40:40;;;;;;;3.17;2.83;;;;;;;;;;4952361;28;20211;-71
2021/10/05 19:43:44;;;;;;;3.03;2.30;;;;;;;;;;4941869;29;20184;-71
2021/10/05 19:46:48;;;;;;;4.17;2.37;;;;;;;;;;4952792;29;20640;-71
2021/10/05 19:49:53;;;;;;;3.33;2.47;;;;;;;;;;4953379;29;20215;-71
2021/10/05 19:52:57;;;;;;;3.70;2.63;;;;;;;;;;4952299;29;20183;-72
2021/10/05 19:56:02;;;;;;;3.47;2.63;;;;;;;;;;4952575;29;20195;-72
2021/10/05 19:59:06;;;;;;;3.00;2.50;;;;;;;;;;4953390;29;20202;-72
2021/10/05 20:02:10;;;;;;;4.37;3.00;;;;;;;;;;4953218;29;20222;-72
2021/10/05 20:05:14;;;;;;;4.17;2.57;;;;;;;;;;4963062;28;20187;-72
2021/10/05 20:08:18;;;;;;;3.60;2.67;;;;;;;;;;4953441;29;20497;-72
2021/10/05 20:11:22;;;;;;;3.53;2.73;;;;;;;;;;4952693;29;20231;-72
2021/10/05 20:14:27;;;;;;;4.43;2.60;;;;;;;;;;4952160;29;20179;-72
2021/10/05 20:17:31;;;;;;;6.90;2.70;;;;;;;;;;4952690;29;20191;-72
2021/10/05 20:20:35;;;;;;;3.80;2.80;;;;;;;;;;4953010;29;20171;-72
2021/10/05 20:23:40;;;;;;;3.13;2.80;;;;;;;;;;4940913;29;20175;-72
2021/10/05 20:26:45;;;;;;;5.60;3.17;;;;;;;;;;4952783;29;20620;-72
2021/10/05 20:29:49;;;;;;;7.30;3.27;;;;;;;;;;4952403;29;20552;-72
2021/10/05 20:32:54;;;;;;;3.90;3.07;;;;;;;;;;4940904;29;20179;-72
2021/10/05 20:35:59;;;;;;;5.37;3.07;;;;;;;;;;4952614;29;20184;-72
2021/10/05 20:39:04;;;;;;;4.23;3.53;;;;;;;;;;4952599;29;20183;-71
2021/10/05 20:42:08;;;;;;;6.60;3.90;;;;;;;;;;4952048;29;20227;-72
2021/10/05 20:45:13;;;;;;;4.40;3.90;;;;;;;;;;4940608;29;20206;-72
2021/10/05 20:48:17;;;;;;;6.90;3.83;;;;;;;;;;4951600;29;20184;-72
2021/10/05 20:51:24;;;;;;;4.43;3.67;;;;;;;;;;4952141;29;20942;-72
2021/10/05 20:54:29;;;;;;;3.83;3.20;;;;;;;;;;4952000;29;20179;-72
2021/10/05 20:57:34;;;;;;;4.70;3.20;;;;;;;;;;4951379;29;20647;-72
2021/10/05 21:00:39;;;;;;;3.90;3.30;;;;;;;;;;4952281;29;20638;-72
2021/10/05 21:03:42;;;;;;;3.77;3.27;;;;;;;;;;4940298;29;20180;-72
2021/10/05 21:06:47;;;;;;;4.97;3.87;;;;;;;;;;4950925;29;20625;-73
2021/10/05 21:09:59;;;;;;;6.73;3.90;;;;;;;;;;4952190;29;20207;-73
2021/10/05 21:13:04;;;;;;;6.87;3.83;;;;;;;;;;4996055;23;20234;-74
2021/10/05 21:16:08;;;;;;;5.13;3.27;;;;;;;;;;4994354;28;20171;-75
2021/10/05 21:19:12;;;;;;;3.30;3.00;;;;;;;;;;4982754;28;20178;-74
2021/10/05 21:22:16;;;;;;;3.57;3.03;;;;;;;;;;4982623;28;20217;-74
2021/10/05 21:25:21;;;;;;;3.70;3.10;;;;;;;;;;4982698;28;20182;-74
2021/10/05 21:28:25;;;;;;;6.73;2.80;;;;;;;;;;4994548;28;20191;-74
2021/10/05 21:31:29;;;;;;;5.33;2.97;;;;;;;;;;4982038;28;20704;-74
2021/10/05 21:34:34;;;;;;;2.73;2.20;;;;;;;;;;4994458;28;20625;-74
2021/10/05 21:37:38;;;;;;;2.60;2.40;;;;;;;;;;4994415;28;20182;-75
2021/10/05 21:40:42;;;;;;;2.33;2.13;;;;;;;;;;4994360;28;20226;-74
2021/10/05 21:43:45;;;;;;;2.90;2.53;;;;;;;;;;4994486;28;20182;-75
2021/10/05 21:46:50;;;;;;;2.40;2.20;;;;;;;;;;4960089;28;20186;-75
2021/10/05 21:49:54;;;;;;;5.50;2.43;;;;;;;;;;4994214;28;20182;-75
2021/10/05 21:52:58;;;;;;;5.17;2.47;;;;;;;;;;4982226;28;20186;-74
2021/10/05 21:56:02;;;;;;;4.97;2.60;;;;;;;;;;4994237;28;20182;-75
2021/10/05 21:59:07;;;;;;;2.50;2.30;;;;;;;;;;4993937;28;20182;-75
2021/10/05 22:02:11;;;;;;;3.20;2.40;;;;;;;;;;4993807;28;20210;-75
2021/10/05 22:05:15;;;;;;;2.30;2.00;;;;;;;;;;4994364;28;20174;-74
2021/10/05 22:08:21;;;;;;;3.40;2.30;;;;;;;;;;4994129;28;20182;-75
2021/10/05 22:11:26;;;;;;;2.87;2.40;;;;;;;;;;4993789;28;20230;-75
2021/10/05 22:14:29;;;;;;;2.93;2.30;;;;;;;;;;4993802;28;20182;-75
2021/10/05 22:17:34;;;;;;;4.90;2.43;;;;;;;;;;4993992;28;20526;-75
2021/10/05 22:20:39;;;;;;;3.47;2.40;;;;;;;;;;4993965;28;20182;-75
2021/10/05 22:23:45;;;;;;;3.77;2.33;;;;;;;;;;4981833;28;20182;-74
2021/10/05 22:26:49;;;;;;;2.80;2.20;;;;;;;;;;4993970;28;20182;-74
2021/10/05 22:29:52;;;;;;;3.00;1.83;;;;;;;;;;4974042;28;20182;-74
2021/10/05 22:32:57;;;;;;;2.77;2.03;;;;;;;;;;4997417;28;20182;-74
2021/10/05 22:36:01;;;;;;;2.23;2.03;;;;;;;;;;4997368;28;20182;-75
2021/10/05 22:39:06;;;;;;;3.73;1.83;;;;;;;;;;4985630;28;20178;-75
2021/10/05 22:42:10;;;;;;;4.43;1.90;;;;;;;;;;4997456;28;20214;-75
2021/10/05 22:45:18;;;;;;;3.83;2.07;;;;;;;;;;4997185;28;20182;-75
2021/10/05 22:48:22;;;;;;;4.60;1.80;;;;;;;;;;4997400;28;20503;-75
2021/10/05 22:51:26;;;;;;;2.33;2.13;;;;;;;;;;4984721;28;20234;-75
2021/10/05 22:54:30;;;;;;;5.00;2.20;;;;;;;;;;4985389;28;20206;-75
2021/10/05 22:57:35;;;;;;;3.67;2.40;;;;;;;;;;4996946;28;20194;-75
2021/10/05 23:00:39;;;;;;;3.00;2.10;;;;;;;;;;4996995;28;20675;-75
2021/10/05 23:03:43;;;;;;;2.13;1.93;;;;;;;;;;4997136;28;20656;-75
2021/10/05 23:06:47;;;;;;;3.13;1.70;;;;;;;;;;4985165;28;20187;-75
2021/10/05 23:09:51;;;;;;;2.20;1.70;;;;;;;;;;4997090;28;20185;-75
2021/10/05 23:12:55;;;;;;;2.90;2.00;;;;;;;;;;4984640;28;20197;-75
2021/10/05 23:16:00;;;;;;;2.10;1.80;;;;;;;;;;4996714;28;20186;-75
2021/10/05 23:19:04;;;;;;;2.40;1.73;;;;;;;;;;4996875;28;20183;-75
2021/10/05 23:22:07;;;;;;;1.50;1.40;;;;;;;;;;4996558;28;20217;-75
2021/10/05 23:25:12;;;;;;;3.47;1.73;;;;;;;;;;4996527;28;20187;-75
2021/10/05 23:28:16;;;;;;;2.20;1.30;;;;;;;;;;4984822;28;20190;-75
2021/10/05 23:31:20;;;;;;;2.73;1.40;;;;;;;;;;4996527;28;20233;-75
2021/10/05 23:34:24;;;;;;;2.23;1.33;;;;;;;;;;4996607;28;20186;-75
2021/10/05 23:37:29;;;;;;;1.60;1.20;;;;;;;;;;4973404;28;20182;-75
2021/10/05 23:40:33;;;;;;;5.37;1.50;;;;;;;;;;4984085;28;20178;-75
2021/10/05 23:43:38;;;;;;;4.30;1.60;;;;;;;;;;4984481;28;20170;-75
2021/10/05 23:46:41;;;;;;;2.23;1.40;;;;;;;;;;4984050;28;20190;-75
2021/10/05 23:49:45;;;;;;;2.20;1.10;;;;;;;;;;4996039;28;20182;-75
2021/10/05 23:52:50;;;;;;;2.57;1.50;;;;;;;;;;4996109;28;20179;-75
2021/10/05 23:55:54;;;;;;;1.73;1.33;;;;;;;;;;4984248;28;20629;-75
2021/10/05 23:58:58;;;;;;;4.53;1.20;;;;;;;;;;4995824;28;20202;-75
